Time;durP1;ratioP1;P1;durP2;ratioP2;P2;SDS_P1;SDS_P2;PMS_P1;PMS_P2;Temp;Humidity;BMP_temperature;BMP_pressure;BME280_temperature;BME280_humidity;BME280_pressure;Samples;Min_cycle;Max_cycle;Signal;HPM_P1;HPM_P2
2024/01/12 00:02:25;;;;;;;36.95;23.65;;;;;;;-5.26;80.34;102323.84;5072057;28;19921;-76
2024/01/12 00:05:29;;;;;;;41.17;25.63;;;;;;;-5.26;80.82;102323.84;5072440;28;20047;-76
2024/01/12 00:08:32;;;;;;;42.53;24.63;;;;;;;-5.30;80.29;102329.59;5072091;28;20124;-76
2024/01/12 00:11:36;;;;;;;40.45;25.63;;;;;;;-5.18;79.98;102328.41;5072268;28;20047;-76
2024/01/12 00:14:39;;;;;;;40.25;24.92;;;;;;;-4.98;79.65;102326.69;5072160;28;20101;-76
2024/01/12 00:17:42;;;;;;;41.58;26.50;;;;;;;-4.87;80.64;102328.78;5072040;28;20043;-76
2024/01/12 00:20:45;;;;;;;46.55;26.42;;;;;;;-4.99;80.38;102324.94;5072845;28;20406;-76
2024/01/12 00:23:49;;;;;;;41.95;25.83;;;;;;;-5.08;81.06;102326.25;5071937;28;20079;-76
2024/01/12 00:26:52;;;;;;;41.97;26.75;;;;;;;-5.05;81.36;102334.03;5072510;28;20073;-76
2024/01/12 00:29:55;;;;;;;47.45;27.27;;;;;;;-4.81;80.45;102329.03;5072891;28;20067;-76
2024/01/12 00:32:59;;;;;;;46.00;29.10;;;;;;;-4.74;81.04;102339.53;5072102;28;20063;-76
2024/01/12 00:36:02;;;;;;;46.55;28.10;;;;;;;-4.69;80.78;102335.50;5072917;28;20512;-76
2024/01/12 00:39:05;;;;;;;44.75;27.08;;;;;;;-4.70;80.74;102325.22;5072767;28;20059;-77
2024/01/12 00:42:10;;;;;;;39.65;26.45;;;;;;;-4.60;80.96;102324.75;5072903;28;20051;-77
2024/01/12 00:45:17;;;;;;;48.10;28.70;;;;;;;-4.51;80.72;102334.44;5071508;28;20098;-77
2024/01/12 00:48:20;;;;;;;45.95;28.70;;;;;;;-4.46;80.82;102323.63;5071719;28;20047;-76
2024/01/12 00:51:23;;;;;;;57.38;31.20;;;;;;;-4.47;81.46;102316.78;5072649;28;20047;-77
2024/01/12 00:54:27;;;;;;;45.75;28.10;;;;;;;-4.41;81.75;102310.13;5072983;28;20105;-77
2024/01/12 00:57:30;;;;;;;54.08;30.63;;;;;;;-4.36;81.64;102306.94;5072737;28;20047;-76
2024/01/12 01:00:33;;;;;;;57.38;30.15;;;;;;;-4.29;81.85;102302.94;5072321;28;20044;-77
2024/01/12 01:03:37;;;;;;;47.85;28.90;;;;;;;-4.20;81.27;102303.28;5072080;28;20047;-77
2024/01/12 01:06:40;;;;;;;;;;;;;;;-4.10;81.43;102299.38;5073642;28;20046;-77
2024/01/12 01:09:43;;;;;;;50.85;29.95;;;;;;;-4.08;81.39;102301.19;5076755;28;19974;-77
2024/01/12 01:12:46;;;;;;;56.30;32.58;;;;;;;-4.07;81.77;102308.03;5076768;28;20174;-76
2024/01/12 01:15:49;;;;;;;55.53;31.40;;;;;;;-4.13;82.08;102323.13;5076309;28;20042;-77
2024/01/12 01:18:53;;;;;;;49.90;29.90;;;;;;;-4.04;81.94;102318.34;5076309;28;20089;-77
2024/01/12 01:21:57;;;;;;;49.63;28.25;;;;;;;-4.08;82.02;102311.41;5076016;28;20413;-77
2024/01/12 01:25:01;;;;;;;48.88;28.90;;;;;;;-4.07;82.19;102319.94;5076465;28;20078;-77
2024/01/12 01:28:04;;;;;;;46.55;27.73;;;;;;;-4.02;82.11;102314.19;5076044;28;20512;-77
2024/01/12 01:31:07;;;;;;;49.17;28.67;;;;;;;-4.02;82.17;102318.38;5076296;28;20415;-76
2024/01/12 01:34:11;;;;;;;44.05;26.80;;;;;;;-3.84;81.75;102313.94;5076308;28;20674;-76
2024/01/12 01:37:14;;;;;;;42.90;25.80;;;;;;;-3.86;82.19;102313.03;5076295;28;20405;-77
2024/01/12 01:40:17;;;;;;;47.10;26.60;;;;;;;-3.81;81.69;102313.19;5075951;28;20097;-76
2024/01/12 01:43:21;;;;;;;43.28;27.80;;;;;;;-3.84;82.07;102311.38;5076079;28;20075;-76
2024/01/12 01:46:26;;;;;;;52.08;29.80;;;;;;;-3.79;81.70;102311.56;5076267;28;20054;-77
2024/01/12 01:49:28;;;;;;;49.50;29.98;;;;;;;-3.75;81.73;102319.38;5075794;28;20079;-77
2024/01/12 01:52:32;;;;;;;63.95;37.63;;;;;;;-3.90;82.22;102320.53;5075740;28;20051;-77
2024/01/12 01:55:35;;;;;;;78.65;44.00;;;;;;;-3.76;82.46;102324.47;5075837;28;20059;-76
2024/01/12 01:58:41;;;;;;;73.38;42.55;;;;;;;-3.66;82.17;102313.72;5075764;28;20043;-76
2024/01/12 02:01:44;;;;;;;76.28;46.67;;;;;;;-3.67;82.19;102319.66;5075704;28;20414;-77
2024/01/12 02:04:52;;;;;;;72.15;45.20;;;;;;;-3.62;82.01;102312.16;5075684;28;20114;-76
2024/01/12 02:07:56;;;;;;;63.92;40.80;;;;;;;-3.54;81.95;102306.50;5074745;28;20079;-76
2024/01/12 02:10:59;;;;;;;55.97;33.90;;;;;;;-3.48;82.41;102304.94;5075509;28;20083;-76
2024/01/12 02:14:06;;;;;;;49.33;32.80;;;;;;;-3.45;81.75;102315.25;5075546;28;20405;-76
2024/01/12 02:17:10;;;;;;;43.17;28.55;;;;;;;-3.63;82.94;102313.84;5075616;28;20046;-76
2024/01/12 02:20:13;;;;;;;43.83;28.88;;;;;;;-3.52;82.59;102298.84;5074534;28;20414;-76
2024/01/12 02:27:22;;;;;;;46.00;28.98;;;;;;;-3.50;82.98;102302.34;5074679;28;20039;-76
2024/01/12 02:30:26;;;;;;;52.95;29.65;;;;;;;-3.48;82.73;102292.16;5074931;28;20532;-76
2024/01/12 02:33:29;;;;;;;49.80;27.83;;;;;;;-3.42;82.75;102290.66;5075186;28;20106;-76
2024/01/12 02:36:32;;;;;;;47.67;29.35;;;;;;;-3.40;82.73;102283.06;5074281;28;20097;-76
2024/01/12 02:39:36;;;;;;;48.45;29.80;;;;;;;-3.63;83.22;102288.28;5074726;28;20174;-76
2024/01/12 02:42:39;;;;;;;;;;;;;;;-3.42;82.89;102289.78;5073703;28;20470;-76
2024/01/12 02:45:42;;;;;;;46.05;26.88;;;;;;;-3.31;82.88;102279.13;5074695;28;20285;-76
2024/01/12 02:48:45;;;;;;;43.60;28.88;;;;;;;-3.27;82.66;102280.06;5074731;28;20060;-76
2024/01/12 02:51:49;;;;;;;43.53;26.70;;;;;;;-3.23;83.48;102278.47;5074596;28;20071;-76
2024/01/12 02:54:52;;;;;;;;;;;;;;;-3.24;82.28;102275.06;5074385;28;20102;-76
2024/01/12 02:57:55;;;;;;;50.85;27.42;;;;;;;-3.25;82.07;102283.56;5074600;28;20289;-76
2024/01/12 03:00:59;;;;;;;45.60;27.83;;;;;;;-3.14;81.83;102292.44;5074668;28;20062;-77
2024/01/12 03:04:02;;;;;;;45.75;27.38;;;;;;;-3.09;81.51;102284.94;5074807;28;20039;-76
2024/01/12 03:07:06;;;;;;;44.45;26.88;;;;;;;-3.11;81.70;102296.78;5074545;28;20118;-76
2024/01/12 03:10:09;;;;;;;52.05;27.65;;;;;;;-3.09;81.23;102295.16;5074459;28;20140;-77
2024/01/12 03:13:12;;;;;;;49.38;28.73;;;;;;;-3.11;81.98;102287.41;5073651;28;20129;-76
2024/01/12 03:16:20;;;;;;;44.65;29.17;;;;;;;-3.05;82.24;102279.06;5073784;28;20168;-76
2024/01/12 03:19:23;;;;;;;44.85;26.90;;;;;;;-3.08;82.46;102291.78;5073035;28;20402;-76
2024/01/12 03:22:27;;;;;;;44.42;25.65;;;;;;;-2.93;81.70;102289.72;5073909;28;20075;-76
2024/01/12 03:25:30;;;;;;;44.47;28.02;;;;;;;-2.92;81.73;102288.00;5074151;28;20043;-76
2024/01/12 03:28:34;;;;;;;44.35;26.83;;;;;;;-2.93;82.68;102287.16;5073833;28;20079;-76
2024/01/12 03:31:37;;;;;;;45.35;28.60;;;;;;;-2.99;82.98;102280.97;5074010;28;20076;-76
2024/01/12 03:34:41;;;;;;;40.25;26.35;;;;;;;-2.95;83.38;102282.78;5073437;28;20082;-76
2024/01/12 03:37:45;;;;;;;37.70;25.00;;;;;;;-2.85;83.38;102283.13;5073141;28;20152;-76
2024/01/12 03:40:48;;;;;;;41.30;26.75;;;;;;;-2.93;83.06;102281.16;5072731;28;20425;-76
2024/01/12 03:43:51;;;;;;;50.92;28.30;;;;;;;-2.87;82.84;102281.31;5073493;28;20086;-76
2024/01/12 03:46:54;;;;;;;47.30;27.02;;;;;;;-2.96;82.33;102288.75;5072645;28;20070;-76
2024/01/12 03:49:57;;;;;;;46.72;28.23;;;;;;;-2.84;82.92;102282.31;5072916;28;20096;-77
2024/01/12 03:53:01;;;;;;;44.33;28.27;;;;;;;-2.88;83.36;102289.84;5072684;28;20078;-76
2024/01/12 03:56:04;;;;;;;;;;;;;;;-2.95;83.04;102287.91;5073670;28;20047;-76
2024/01/12 03:59:07;;;;;;;41.83;27.40;;;;;;;-2.99;84.14;102291.22;5073147;28;19919;-76
2024/01/12 04:02:11;;;;;;;44.60;25.92;;;;;;;-2.98;84.32;102280.13;5073469;28;20054;-76
2024/01/12 04:05:15;;;;;;;43.85;27.08;;;;;;;-2.95;83.92;102273.41;5073194;28;20051;-76
2024/01/12 04:08:18;;;;;;;46.85;27.55;;;;;;;-3.05;84.82;102276.53;5073192;28;20063;-76
2024/01/12 04:11:22;;;;;;;42.92;27.60;;;;;;;-3.04;84.99;102273.13;5072315;28;20035;-76
2024/01/12 04:14:51;;;;;;;44.95;27.80;;;;;;;-2.95;84.50;102281.09;5073152;28;20059;-76
2024/01/12 04:17:57;;;;;;;41.33;24.90;;;;;;;-2.94;84.45;102285.38;5072728;28;20101;-76
2024/01/12 04:21:00;;;;;;;39.92;26.60;;;;;;;-2.88;84.37;102289.84;5072975;28;20043;-76
2024/01/12 04:24:03;;;;;;;47.05;28.45;;;;;;;-2.89;84.19;102285.53;5072887;28;20463;-76
2024/01/12 04:27:07;;;;;;;48.70;29.27;;;;;;;-2.83;83.85;102285.75;5072924;28;20047;-76
2024/01/12 04:30:10;;;;;;;;;;;;;;;-2.95;84.14;102277.69;5073252;28;20406;-76
2024/01/12 04:33:14;;;;;;;44.55;27.13;;;;;;;-3.08;84.02;102284.97;5072712;28;19919;-76
2024/01/12 04:36:32;;;;;;;;;;;;;;;;;;;;;
2024/01/12 04:39:48;;;;;;;44.50;27.20;;;;;;;-2.88;83.16;102279.59;5071766;28;20131;-76
2024/01/12 04:42:51;;;;;;;41.53;27.23;;;;;;;-2.83;82.70;102283.19;5072185;28;20128;-76
2024/01/12 04:45:55;;;;;;;42.10;27.27;;;;;;;-2.74;82.22;102274.88;5072822;28;20508;-76
2024/01/12 04:48:58;;;;;;;41.05;25.35;;;;;;;-2.74;82.19;102272.31;5072614;28;20051;-76
2024/01/12 04:52:02;;;;;;;43.40;26.40;;;;;;;-2.72;82.47;102284.34;5072789;28;20043;-76
2024/01/12 04:55:05;;;;;;;;;;;;;;;-2.75;81.78;102281.69;5073139;28;20040;-76
2024/01/12 04:58:08;;;;;;;42.70;25.83;;;;;;;-2.86;81.85;102278.81;5072761;28;20305;-76
2024/01/12 05:01:11;;;;;;;46.28;26.38;;;;;;;-2.88;80.88;102279.59;5072593;28;20098;-76
2024/01/12 05:04:14;;;;;;;49.85;27.20;;;;;;;-2.94;81.53;102274.28;5072761;28;20056;-76
2024/01/12 05:07:18;;;;;;;38.55;21.85;;;;;;;-2.91;81.15;102285.47;5072667;28;20091;-76
2024/01/12 05:10:21;;;;;;;39.85;26.15;;;;;;;-2.82;81.04;102282.34;5072595;28;20090;-74
2024/01/12 05:13:24;;;;;;;42.45;27.00;;;;;;;-2.73;81.01;102281.78;5071594;28;20043;-76
2024/01/12 05:16:28;;;;;;;41.58;27.10;;;;;;;-2.81;80.83;102279.84;5072486;28;20102;-76
2024/01/12 05:19:31;;;;;;;42.17;27.73;;;;;;;-2.73;80.74;102272.38;5072087;28;20532;-76
2024/01/12 05:22:36;;;;;;;42.22;28.38;;;;;;;-2.77;80.97;102262.03;5072360;28;20048;-76
2024/01/12 05:25:39;;;;;;;42.72;26.90;;;;;;;-2.98;82.04;102267.34;5070732;28;20043;-76
2024/01/12 05:28:42;;;;;;;48.30;28.23;;;;;;;-3.33;83.17;102267.09;5071064;28;20489;-76
2024/01/12 05:31:45;;;;;;;47.55;26.77;;;;;;;-3.21;83.54;102262.38;5070455;28;20047;-76
2024/01/12 05:34:49;;;;;;;39.53;26.08;;;;;;;-3.07;82.94;102262.78;5072124;28;20055;-76
2024/01/12 05:37:52;;;;;;;44.80;26.58;;;;;;;-3.02;82.89;102263.81;5071314;28;20043;-76
2024/01/12 05:40:55;;;;;;;43.38;26.80;;;;;;;-3.01;83.23;102262.13;5072265;28;20040;-77
2024/01/12 05:43:58;;;;;;;40.58;26.67;;;;;;;-2.82;82.48;102259.31;5072214;28;20044;-77
2024/01/12 05:47:02;;;;;;;41.63;26.60;;;;;;;-2.79;81.67;102256.84;5072208;28;20524;-77
2024/01/12 05:50:08;;;;;;;44.05;27.88;;;;;;;-3.01;83.73;102254.44;5071875;28;20090;-76
2024/01/12 05:53:11;;;;;;;49.67;27.15;;;;;;;-3.05;83.49;102246.69;5072502;28;20094;-77
2024/01/12 05:56:14;;;;;;;42.38;28.27;;;;;;;-3.02;84.02;102245.03;5075946;28;20104;-77
2024/01/12 05:59:18;;;;;;;;;;;;;;;-3.34;85.97;102257.69;5075993;28;20040;-76
2024/01/12 06:02:21;;;;;;;45.92;27.33;;;;;;;-3.42;86.33;102259.09;5075677;28;19935;-76
2024/01/12 06:05:25;;;;;;;41.92;27.55;;;;;;;-3.59;87.87;102256.88;5075674;28;20086;-74
2024/01/12 06:08:29;;;;;;;48.67;28.58;;;;;;;-3.33;87.64;102272.19;5075916;28;20109;-74
2024/01/12 06:11:32;;;;;;;46.63;28.25;;;;;;;-3.39;88.25;102269.44;5076318;28;20075;-76
2024/01/12 06:14:35;;;;;;;51.25;30.90;;;;;;;-3.43;87.94;102277.84;5075721;28;20703;-75
2024/01/12 06:17:38;;;;;;;49.60;29.00;;;;;;;-3.21;88.23;102290.50;5075513;28;20044;-76
2024/01/12 06:20:42;;;;;;;39.05;27.58;;;;;;;-2.97;87.37;102276.75;5075327;28;20052;-74
2024/01/12 06:23:45;;;;;;;48.35;29.15;;;;;;;-3.09;88.13;102277.25;5074597;28;20043;-73
2024/01/12 06:26:49;;;;;;;44.75;29.23;;;;;;;-3.07;88.79;102268.78;5075317;28;20097;-75
2024/01/12 06:29:52;;;;;;;52.33;29.98;;;;;;;-3.02;88.76;102280.88;5075523;28;20071;-75
2024/01/12 06:32:56;;;;;;;43.40;27.60;;;;;;;-2.82;88.07;102269.53;5075171;28;20264;-77
2024/01/12 06:36:11;;;;;;;49.50;28.08;;;;;;;-2.93;88.80;102282.03;5075096;28;20123;-77
2024/01/12 06:39:24;;;;;;;47.15;31.73;;;;;;;-2.97;89.42;102275.06;5063668;28;20097;-78
2024/01/12 06:42:28;;;;;;;49.33;27.25;;;;;;;-2.82;89.40;102274.66;5073318;28;20071;-76
2024/01/12 06:45:31;;;;;;;43.90;26.55;;;;;;;-2.86;89.67;102277.97;5073134;28;20101;-69
2024/01/12 06:48:37;;;;;;;48.15;30.33;;;;;;;-2.71;90.86;102286.13;5073740;28;20135;-75
2024/01/12 06:51:41;;;;;;;44.83;27.95;;;;;;;-2.62;89.81;102295.75;5075101;28;20107;-75
2024/01/12 06:54:44;;;;;;;46.15;27.83;;;;;;;-2.70;89.59;102292.09;5068092;28;20051;-75
2024/01/12 06:57:48;;;;;;;47.65;30.92;;;;;;;-2.94;90.88;102300.75;5072623;28;20110;-75
2024/01/12 07:04:40;;;;;;;52.75;29.65;;;;;;;-3.12;93.59;102303.59;5073536;28;19943;-76
2024/01/12 07:07:45;;;;;;;57.72;34.28;;;;;;;-3.19;94.44;102299.13;5074468;28;20066;-76
2024/01/12 07:10:48;;;;;;;52.72;34.63;;;;;;;-3.04;94.15;102304.69;5072489;28;20065;-76
2024/01/12 07:13:52;;;;;;;55.38;33.33;;;;;;;-2.95;93.87;102306.69;5072572;28;20055;-76
2024/01/12 07:16:56;;;;;;;60.95;33.08;;;;;;;-3.05;94.53;102307.22;5073325;28;20131;-76
2024/01/12 07:19:59;;;;;;;;;;;;;;;-2.93;93.69;102309.31;5074210;28;20480;-76
2024/01/12 07:23:02;;;;;;;58.78;32.75;;;;;;;-2.84;93.17;102307.03;5073766;28;19924;-76
2024/01/12 07:26:06;;;;;;;57.30;35.70;;;;;;;-3.06;94.34;102301.25;5073958;28;20469;-75
2024/01/12 07:29:14;;;;;;;53.17;35.17;;;;;;;-3.00;94.92;102297.13;5073763;28;20070;-75
2024/01/12 07:32:20;;;;;;;50.90;31.77;;;;;;;-2.87;94.64;102296.69;5073126;28;20070;-75
2024/01/12 07:35:28;;;;;;;57.60;33.33;;;;;;;-2.75;93.93;102299.63;5072764;28;20094;-75
2024/01/12 07:38:31;;;;;;;59.15;35.65;;;;;;;-2.70;93.50;102297.22;5072193;28;20059;-76
2024/01/12 07:41:43;;;;;;;58.85;35.72;;;;;;;-2.96;94.23;102298.97;5072864;28;20101;-75
2024/01/12 07:44:50;;;;;;;61.65;37.97;;;;;;;-3.02;94.83;102306.47;5060521;28;20094;-75
2024/01/12 07:48:03;;;;;;;60.00;36.20;;;;;;;-2.90;94.41;102302.59;5072171;28;20459;-74
2024/01/12 07:51:17;;;;;;;62.90;38.33;;;;;;;-2.90;94.62;102305.16;5072114;28;20150;-76
2024/01/12 07:54:24;;;;;;;60.83;36.00;;;;;;;-2.73;94.07;102299.69;5059503;28;20105;-74
2024/01/12 07:57:27;;;;;;;67.28;42.58;;;;;;;-2.71;93.87;102298.03;5070996;28;20460;-73
2024/01/12 08:00:42;;;;;;;61.80;37.72;;;;;;;-2.67;94.23;102302.44;5071935;28;20047;-76
2024/01/12 08:04:09;;;;;;;66.82;38.65;;;;;;;-2.91;94.57;102305.97;5072185;28;20122;-74
2024/01/12 08:07:13;;;;;;;64.22;39.47;;;;;;;-2.68;94.17;102301.56;5072066;28;20063;-74
2024/01/12 08:10:18;;;;;;;60.13;34.05;;;;;;;-2.81;94.25;102292.66;5072251;28;20051;-74
2024/01/12 08:13:39;;;;;;;58.90;33.83;;;;;;;-2.53;93.86;102300.28;5071781;28;20094;-75
2024/01/12 08:16:43;;;;;;;55.60;34.72;;;;;;;-2.58;93.17;102305.28;5070965;28;20106;-74
2024/01/12 08:19:47;;;;;;;59.13;33.38;;;;;;;-2.47;93.25;102297.91;5071658;28;20516;-74
2024/01/12 08:22:51;;;;;;;59.15;38.30;;;;;;;-2.26;91.78;102293.41;5071641;28;20109;-75
2024/01/12 08:26:13;;;;;;;73.60;45.80;;;;;;;-2.31;92.02;102299.22;5071741;28;20097;-75
2024/01/12 08:29:17;;;;;;;103.78;66.18;;;;;;;-2.21;91.63;102306.34;5070586;28;20094;-74
2024/01/12 08:32:20;;;;;;;;;;;;;;;-2.12;90.68;102312.59;5071461;28;20087;-74
2024/01/12 08:35:24;;;;;;;97.90;56.50;;;;;;;-2.10;91.38;102304.97;5070972;28;19919;-74
2024/01/12 08:38:27;;;;;;;77.28;45.85;;;;;;;-2.01;91.22;102306.91;5071484;28;20097;-74
2024/01/12 08:41:35;;;;;;;64.65;37.65;;;;;;;-2.12;91.14;102297.22;5071356;28;20102;-73
2024/01/12 08:44:41;;;;;;;65.65;34.63;;;;;;;-1.95;90.75;102305.38;5071485;28;20047;-74
2024/01/12 08:47:45;;;;;;;54.60;34.22;;;;;;;-1.95;91.50;102307.94;5071208;28;20044;-75
2024/01/12 08:50:48;;;;;;;62.15;33.15;;;;;;;-1.98;91.47;102314.69;5071608;28;20131;-74
2024/01/12 08:53:51;;;;;;;60.38;36.45;;;;;;;-2.01;91.26;102320.63;5071566;28;20097;-74
2024/01/12 08:56:54;;;;;;;61.95;34.83;;;;;;;-2.14;92.13;102310.81;5071509;28;20042;-73
2024/01/12 08:59:58;;;;;;;;;;;;;;;-2.02;91.65;102303.47;5071676;28;20445;-77
2024/01/12 09:03:02;;;;;;;58.17;32.17;;;;;;;-1.92;90.85;102310.59;5071285;28;20289;-77
2024/01/12 09:06:07;;;;;;;59.78;35.30;;;;;;;-2.14;91.47;102309.16;5071547;28;20056;-77
2024/01/12 09:09:12;;;;;;;55.55;34.00;;;;;;;-2.13;92.38;102305.75;5058639;28;20135;-75
2024/01/12 09:12:17;;;;;;;52.30;32.78;;;;;;;-2.00;91.62;102321.47;5071139;28;20516;-75
2024/01/12 09:15:21;;;;;;;75.93;43.92;;;;;;;-2.04;92.66;102324.75;5070356;28;20245;-76
2024/01/12 09:18:24;;;;;;;;;;;;;;;-1.75;91.22;102320.47;5071956;28;20131;-75
2024/01/12 09:21:27;;;;;;;51.23;31.07;;;;;;;-1.68;90.77;102312.97;5071197;28;20053;-76
2024/01/12 09:24:31;;;;;;;55.33;35.05;;;;;;;-1.63;90.03;102307.94;5071167;28;20105;-74
2024/01/12 09:27:35;;;;;;;54.63;34.80;;;;;;;-1.81;90.81;102303.22;5071330;28;20053;-75
2024/01/12 09:30:41;;;;;;;52.92;32.15;;;;;;;-1.64;90.32;102312.22;5075473;28;20047;-78
2024/01/12 09:33:44;;;;;;;60.20;34.75;;;;;;;-1.75;90.62;102329.03;5075209;28;20059;-75
2024/01/12 09:36:47;;;;;;;53.38;33.83;;;;;;;-1.77;91.80;102335.78;5075046;28;20094;-76
2024/01/12 09:39:51;;;;;;;54.38;32.70;;;;;;;-1.63;91.19;102323.34;5074724;28;20159;-74
2024/01/12 09:42:57;;;;;;;49.80;31.77;;;;;;;-1.50;90.36;102320.28;5071753;28;20056;-79
2024/01/12 09:46:08;;;;;;;56.63;35.75;;;;;;;-1.64;90.91;102322.47;5073882;28;20102;-77
2024/01/12 09:49:12;;;;;;;51.75;33.10;;;;;;;-1.54;90.68;102327.84;5074438;28;20107;-76
2024/01/12 09:52:17;;;;;;;52.00;31.65;;;;;;;-1.51;90.60;102328.78;5074368;28;20098;-77
2024/01/12 09:55:20;;;;;;;54.92;33.70;;;;;;;-1.53;90.66;102334.69;5073319;28;20043;-77
2024/01/12 09:58:27;;;;;;;54.72;32.03;;;;;;;-1.44;90.80;102330.69;5074472;28;20048;-77
2024/01/12 10:01:32;;;;;;;54.08;32.38;;;;;;;-1.34;90.07;102319.00;5074033;28;20094;-77
2024/01/12 10:04:37;;;;;;;50.42;30.27;;;;;;;-1.32;90.02;102319.00;5074650;28;20043;-78
2024/01/12 10:07:43;;;;;;;59.60;35.55;;;;;;;-1.55;90.81;102318.41;5073536;28;20097;-77
2024/01/12 10:10:47;;;;;;;;;;;;;;;-1.56;92.03;102325.25;5074897;28;20127;-77
2024/01/12 10:13:50;;;;;;;50.17;32.88;;;;;;;-1.47;91.44;102319.47;5073486;28;20015;-77
2024/01/12 10:16:57;;;;;;;55.20;33.85;;;;;;;-1.38;91.02;102331.69;5074386;28;20058;-78
2024/01/12 10:20:00;;;;;;;59.63;35.22;;;;;;;-1.33;91.16;102318.16;5074037;28;20082;-78
2024/01/12 10:23:04;;;;;;;53.67;32.97;;;;;;;-1.31;90.97;102319.06;5074140;28;20052;-78
2024/01/12 10:26:09;;;;;;;51.70;31.42;;;;;;;-1.19;90.47;102326.19;5074508;28;20398;-77
2024/01/12 10:29:15;;;;;;;55.40;32.47;;;;;;;-1.13;90.59;102321.19;5072067;28;20119;-76
2024/01/12 10:32:19;;;;;;;60.67;37.60;;;;;;;-1.12;90.06;102322.06;5072375;28;20141;-78
2024/01/12 10:35:22;;;;;;;55.72;33.45;;;;;;;-1.19;90.90;102327.03;5073487;28;20046;-74
2024/01/12 10:38:29;;;;;;;47.35;29.77;;;;;;;-1.13;90.45;102315.22;5074082;28;20058;-73
2024/01/12 10:41:33;;;;;;;49.45;33.08;;;;;;;-1.26;91.94;102307.19;5073190;28;20174;-73
2024/01/12 10:44:40;;;;;;;50.75;32.78;;;;;;;-1.14;91.40;102311.78;5073949;28;20059;-74
2024/01/12 10:47:51;;;;;;;49.47;29.23;;;;;;;-1.05;91.04;102313.72;5073700;28;20089;-73
2024/01/12 10:50:59;;;;;;;52.45;33.08;;;;;;;-1.17;91.47;102304.00;5073070;28;20071;-75
2024/01/12 10:54:32;;;;;;;44.67;30.15;;;;;;;-0.94;90.92;102309.69;5073686;28;20047;-74
2024/01/12 10:57:37;;;;;;;44.72;28.33;;;;;;;-0.94;91.01;102312.25;5073936;28;20051;-75
2024/01/12 11:00:41;;;;;;;48.45;30.50;;;;;;;-0.90;91.05;102308.91;5073534;28;20079;-76
2024/01/12 11:03:47;;;;;;;44.72;26.35;;;;;;;-0.84;90.88;102309.06;5073346;28;20132;-74
2024/01/12 11:06:55;;;;;;;42.83;27.25;;;;;;;-0.73;90.75;102293.91;5073567;28;20047;-74
2024/01/12 11:10:00;;;;;;;59.08;39.08;;;;;;;-0.96;92.36;102289.13;5073398;28;20046;-75
2024/01/12 11:13:03;;;;;;;57.47;38.30;;;;;;;-0.88;92.10;102296.97;5073010;28;20424;-75
2024/01/12 11:16:08;;;;;;;98.93;79.60;;;;;;;-0.76;91.61;102294.69;5073021;28;20417;-76
2024/01/12 11:19:15;;;;;;;68.43;46.65;;;;;;;-0.84;91.35;102277.38;5072978;28;20110;-76
2024/01/12 11:22:19;;;;;;;85.57;50.47;;;;;;;-0.91;92.21;102276.38;5073140;28;20107;-75
2024/01/12 11:25:22;;;;;;;76.45;49.05;;;;;;;-0.74;91.56;102275.03;5072812;28;20196;-73
2024/01/12 11:28:35;;;;;;;65.80;42.88;;;;;;;-0.66;90.83;102277.78;5073009;28;20043;-75
2024/01/12 11:31:48;;;;;;;53.47;36.03;;;;;;;-0.66;90.75;102261.50;5072621;28;20048;-72
2024/01/12 11:34:53;;;;;;;54.47;35.00;;;;;;;-0.58;90.64;102257.38;5060611;28;20059;-73
2024/01/12 11:38:02;;;;;;;49.78;32.47;;;;;;;-0.44;89.88;102243.16;5072430;28;20067;-74
2024/01/12 11:41:12;;;;;;;43.53;27.17;;;;;;;-0.41;89.66;102240.63;5072565;28;20048;-69
2024/01/12 11:44:15;;;;;;;31.75;21.67;;;;;;;-0.39;89.55;102236.38;5071448;28;20055;-74
2024/01/12 11:47:19;;;;;;;29.65;19.17;;;;;;;-0.31;89.54;102229.69;5071573;28;20117;-74
2024/01/12 11:50:27;;;;;;;42.30;26.52;;;;;;;-0.42;90.42;102246.59;5072285;28;20044;-73
2024/01/12 11:53:37;;;;;;;36.70;24.35;;;;;;;-0.54;91.14;102247.22;5073571;28;20051;-73
2024/01/12 11:56:42;;;;;;;37.25;25.30;;;;;;;-0.43;90.87;102224.31;5073450;28;20043;-73
2024/01/12 11:59:46;;;;;;;32.40;20.70;;;;;;;-0.76;91.90;102233.06;5072570;28;20151;-72
2024/01/12 12:02:49;;;;;;;29.42;20.00;;;;;;;-0.50;91.11;102233.59;5073542;28;20094;-74
2024/01/12 12:05:59;;;;;;;69.55;42.50;;;;;;;-0.47;90.78;102225.09;5073833;28;20071;-72
2024/01/12 12:09:05;;;;;;;35.20;23.17;;;;;;;-0.67;91.62;102213.53;5073365;28;20051;-73
2024/01/12 12:12:08;;;;;;;;;;;;;;;-0.63;92.39;102215.34;5073628;28;20532;-80
2024/01/12 12:15:16;;;;;;;33.45;21.20;;;;;;;-0.60;91.80;102221.41;5072528;28;19950;-75
2024/01/12 12:18:25;;;;;;;35.50;22.33;;;;;;;-0.60;92.32;102217.97;5072339;28;20046;-77
2024/01/12 12:21:33;;;;;;;33.72;20.70;;;;;;;-0.45;91.73;102202.84;5072993;28;20400;-74
2024/01/12 12:24:38;;;;;;;34.17;22.90;;;;;;;-0.84;93.40;102201.19;5073346;28;20055;-76
2024/01/12 12:27:49;;;;;;;42.05;26.33;;;;;;;-0.89;94.37;102200.25;5071327;28;20536;-76
2024/01/12 12:30:58;;;;;;;37.22;24.48;;;;;;;-0.58;93.06;102214.56;5072288;28;20504;-76
2024/01/12 12:34:03;;;;;;;46.35;25.50;;;;;;;-0.46;92.30;102193.41;5072600;28;20430;-75
2024/01/12 12:37:13;;;;;;;37.80;22.42;;;;;;;-0.41;91.17;102196.94;5071741;28;20559;-77
2024/01/12 12:40:27;;;;;;;34.88;21.98;;;;;;;-0.35;91.27;102209.94;5071904;28;20047;-77
2024/01/12 12:43:31;;;;;;;41.03;24.80;;;;;;;-0.23;90.40;102191.28;5072922;28;20517;-77
2024/01/12 12:46:36;;;;;;;37.13;24.08;;;;;;;-0.37;91.46;102183.31;5071942;28;20455;-76
2024/01/12 12:50:02;;;;;;;39.10;23.83;;;;;;;-0.31;92.43;102178.28;5032310;28;20071;-75
2024/01/12 12:53:06;;;;;;;37.42;22.70;;;;;;;-0.24;91.41;102176.69;5032455;28;20044;-71
2024/01/12 12:56:09;;;;;;;;;;;;;;;-0.06;91.08;102176.19;5032438;28;20044;-73
2024/01/12 12:59:14;;;;;;;37.55;23.15;;;;;;;-0.39;91.80;102179.84;5032419;28;19959;-70
2024/01/12 13:02:18;;;;;;;36.88;22.50;;;;;;;-0.28;91.39;102175.78;5032045;28;20110;-81
2024/01/12 13:05:21;;;;;;;37.28;24.75;;;;;;;-0.14;90.87;102173.47;5031578;28;20445;-70
2024/01/12 13:08:25;;;;;;;;;;;;;;;-0.03;90.35;102181.38;5031234;28;20137;-69
2024/01/12 13:11:28;;;;;;;34.85;20.77;;;;;;;0.09;89.33;102173.00;5031436;28;19920;-68
2024/01/12 13:14:32;;;;;;;29.13;15.98;;;;;;;-0.03;89.48;102168.53;5031264;28;20041;-71
2024/01/12 13:17:36;;;;;;;21.83;15.82;;;;;;;-0.09;89.52;102159.00;5031582;28;20088;-73
2024/01/12 13:20:40;;;;;;;21.27;14.30;;;;;;;-0.16;89.79;102163.97;5031259;28;20052;-72
2024/01/12 13:23:43;;;;;;;20.27;13.10;;;;;;;-0.11;90.81;102158.09;5031233;28;20485;-75
2024/01/12 13:26:47;;;;;;;20.35;13.43;;;;;;;-0.02;90.36;102157.38;5031291;28;20387;-71
2024/01/12 13:29:54;;;;;;;16.10;11.57;;;;;;;0.14;89.25;102151.66;5029824;28;20563;-72
2024/01/12 13:32:59;;;;;;;21.95;14.07;;;;;;;0.19;89.04;102149.16;5028977;28;20072;-73
2024/01/12 13:36:05;;;;;;;23.90;16.35;;;;;;;0.25;89.13;102138.97;5031115;28;20102;-73
2024/01/12 13:39:12;;;;;;;19.48;13.32;;;;;;;0.31;88.68;102136.50;5031562;28;20435;-72
2024/01/12 13:42:17;;;;;;;19.25;11.48;;;;;;;0.27;88.33;102136.44;5031596;28;20111;-72
2024/01/12 13:45:24;;;;;;;18.65;13.43;;;;;;;0.18;89.35;102122.56;5031947;28;20568;-72
2024/01/12 13:48:30;;;;;;;18.75;11.80;;;;;;;0.17;89.26;102113.13;5049918;28;20326;-73
2024/01/12 13:51:35;;;;;;;21.80;14.65;;;;;;;0.27;88.75;102105.56;5071561;28;20141;-72
2024/01/12 13:54:41;;;;;;;22.27;15.65;;;;;;;0.24;88.86;102103.81;5070627;28;20039;-72
2024/01/12 13:57:49;;;;;;;25.25;15.95;;;;;;;0.23;89.04;102109.78;5051315;28;20571;-73
2024/01/12 14:00:53;;;;;;;20.00;13.50;;;;;;;0.19;88.78;102111.47;5050295;28;20141;-72
2024/01/12 14:03:59;;;;;;;22.25;14.13;;;;;;;0.21;88.72;102109.75;5050494;28;20512;-72
2024/01/12 14:07:05;;;;;;;20.08;12.65;;;;;;;0.16;88.88;102111.41;5051355;28;20051;-72
2024/01/12 14:10:11;;;;;;;21.70;14.48;;;;;;;0.10;89.16;102108.75;5051268;28;20043;-72
2024/01/12 14:13:16;;;;;;;16.30;10.43;;;;;;;0.07;89.55;102108.69;5050632;28;20051;-72
2024/01/12 14:16:22;;;;;;;17.05;11.38;;;;;;;-0.17;90.59;102113.41;5076356;28;20114;-72